Terminal Aerodrome Forecast
Issued by NWS

Home | Current Version | Previous Version | Text Only | Print | Product List | Glossary On
Versions: 1 2 3 4 5 6 7 8 9 10 11 12 13 14 15 16 17 18 19
764
FTUS43 KIND 181130
TAFBMG
TAF
KBMG 181130Z 1812/1912 20015G25KT P6SM SHRA VCTS OVC015CB
     FM181300 20016G26KT P6SM SHRA VCTS OVC010CB
     FM182100 29020G35KT 5SM SHRA OVC008
     FM190000 32018G31KT 6SM -SHRA OVC015
     FM190200 31017G31KT P6SM VCSH OVC015
     FM190400 31015G29KT P6SM OVC020
      AMD LTD TO CLD VIS AND WIND TIL 181400=

USA.gov is the U.S. government's official web portal to all federal, state and local government web resources and services.